createdAt,value
2022-08-19T00:02:15.839Z,7.65
2022-08-19T00:04:43.096Z,6.95
2022-08-19T00:07:10.418Z,6.20
2022-08-19T00:09:37.692Z,6.65
2022-08-19T00:12:05.445Z,7.05
2022-08-19T00:14:33.043Z,7.30
2022-08-19T00:17:01.907Z,7.63
2022-08-19T00:19:29.754Z,6.45
2022-08-19T00:21:57.157Z,7.32
2022-08-19T00:24:25.076Z,6.38
2022-08-19T00:26:52.899Z,7.60
2022-08-19T00:29:22.164Z,7.88
2022-08-19T00:31:51.048Z,8.05
2022-08-19T00:34:18.353Z,7.40
2022-08-19T00:36:46.225Z,8.05
2022-08-19T00:39:14.832Z,7.65
2022-08-19T00:41:43.798Z,7.63
2022-08-19T00:44:15.947Z,7.95
2022-08-19T00:46:51.649Z,7.40
2022-08-19T00:49:53.735Z,6.70
2022-08-19T00:52:25.586Z,8.30
2022-08-19T00:54:53.970Z,7.57
2022-08-19T00:57:45.503Z,8.25
2022-08-19T01:00:16.819Z,9.10
2022-08-19T01:02:44.355Z,9.90
2022-08-19T01:05:19.467Z,8.63
2022-08-19T01:07:48.186Z,9.35
2022-08-19T01:10:19.413Z,9.20
2022-08-19T01:12:48.287Z,8.02
2022-08-19T01:15:19.622Z,9.18
2022-08-19T01:17:47.471Z,8.50
2022-08-19T01:20:21.283Z,9.93
2022-08-19T01:22:53.456Z,10.10
2022-08-19T01:25:26.559Z,8.85
2022-08-19T01:27:56.576Z,9.10
2022-08-19T01:30:32.308Z,8.30
2022-08-19T01:33:01.407Z,9.98
2022-08-19T01:35:31.183Z,9.63
2022-08-19T01:38:02.099Z,9.82
2022-08-19T01:40:33.675Z,9.90
2022-08-19T01:43:01.272Z,9.55
2022-08-19T01:45:32.002Z,7.72
2022-08-19T01:48:01.740Z,9.48
2022-08-19T01:50:32.667Z,8.48
2022-08-19T01:53:03.594Z,9.38
2022-08-19T01:55:41.193Z,8.45
2022-08-19T01:58:15.788Z,8.13
2022-08-19T02:00:43.831Z,8.48
2022-08-19T02:03:12.153Z,7.97
2022-08-19T02:05:40.846Z,8.18
2022-08-19T02:08:09.157Z,9.50
2022-08-19T02:10:43.275Z,9.40
2022-08-19T02:13:12.414Z,7.97
2022-08-19T02:15:39.734Z,8.55
2022-08-19T02:18:08.295Z,8.02
2022-08-19T02:20:36.619Z,7.80
2022-08-19T02:23:04.393Z,8.90
2022-08-19T02:25:31.630Z,7.90
2022-08-19T02:27:58.922Z,8.30
2022-08-19T02:30:26.214Z,9.10
2022-08-19T02:32:53.804Z,8.90
2022-08-19T02:35:22.102Z,8.80
2022-08-19T02:38:08.356Z,8.48
2022-08-19T02:40:36.324Z,9.48
2022-08-19T02:43:09.398Z,9.50
2022-08-19T02:45:40.510Z,8.25
2022-08-19T02:48:14.938Z,8.85
2022-08-19T02:50:56.041Z,9.02
2022-08-19T02:53:26.817Z,9.02
2022-08-19T02:55:54.112Z,9.20
2022-08-19T02:58:22.575Z,9.20
2022-08-19T03:00:52.877Z,8.30
2022-08-19T03:03:20.274Z,10.02
2022-08-19T03:05:56.074Z,10.40
2022-08-19T03:08:25.356Z,10.27
2022-08-19T03:10:53.874Z,9.85
2022-08-19T03:13:21.355Z,9.25
2022-08-19T03:15:49.232Z,10.80
2022-08-19T03:18:17.875Z,10.73
2022-08-19T03:20:50.082Z,12.07
2022-08-19T03:23:17.883Z,9.18
2022-08-19T03:25:58.148Z,10.90
2022-08-19T03:28:30.615Z,12.15
2022-08-19T03:31:05.061Z,16.95
2022-08-19T03:33:52.578Z,14.10
2022-08-19T03:36:25.982Z,15.18
2022-08-19T03:38:59.950Z,14.20
2022-08-19T03:41:43.267Z,14.40
2022-08-19T03:44:18.032Z,14.50
2022-08-19T03:46:48.294Z,14.20
2022-08-19T03:49:16.177Z,17.15
2022-08-19T03:51:47.619Z,16.77
2022-08-19T03:54:19.273Z,17.90
2022-08-19T03:56:49.134Z,16.60
2022-08-19T03:59:26.547Z,16.27
2022-08-19T04:01:56.402Z,15.95
2022-08-19T04:04:24.310Z,14.88
2022-08-19T04:06:52.356Z,16.00
2022-08-19T04:09:20.242Z,18.65
2022-08-19T04:11:51.082Z,20.70
2022-08-19T04:14:21.668Z,17.88
2022-08-19T04:16:49.879Z,20.33
2022-08-19T04:19:18.977Z,22.90
2022-08-19T04:21:49.538Z,21.35
2022-08-19T04:24:18.075Z,25.45
2022-08-19T04:26:45.758Z,23.73
2022-08-19T04:29:20.681Z,27.35
2022-08-19T04:31:48.475Z,24.77
2022-08-19T04:34:18.466Z,21.75
2022-08-19T04:36:46.059Z,20.23
2022-08-19T04:39:16.565Z,20.17
2022-08-19T04:42:03.761Z,21.90
2022-08-19T04:44:36.311Z,22.17
2022-08-19T04:47:12.275Z,21.40
2022-08-19T04:49:39.500Z,19.75
2022-08-19T04:52:06.895Z,21.25
2022-08-19T04:54:38.230Z,21.77
2022-08-19T04:57:09.394Z,23.02
2022-08-19T04:59:37.822Z,20.67
2022-08-19T05:02:06.391Z,21.92
2022-08-19T05:04:34.397Z,20.80
2022-08-19T05:07:02.462Z,25.33
2022-08-19T05:09:42.174Z,24.10
2022-08-19T05:12:18.993Z,25.55
2022-08-19T05:14:48.296Z,25.85
2022-08-19T05:17:37.521Z,23.70
2022-08-19T05:20:23.871Z,24.27
2022-08-19T05:22:51.241Z,26.30
2022-08-19T05:25:21.043Z,21.60
2022-08-19T05:27:49.086Z,21.88
2022-08-19T05:30:17.343Z,23.00
2022-08-19T05:32:44.919Z,26.95
2022-08-19T05:35:12.639Z,23.55
2022-08-19T05:37:43.229Z,21.15
2022-08-19T05:40:11.135Z,27.45
2022-08-19T05:42:38.786Z,24.25
2022-08-19T05:45:06.794Z,22.73
2022-08-19T05:47:34.069Z,26.10
2022-08-19T05:50:05.146Z,24.42
2022-08-19T05:52:32.614Z,24.95
2022-08-19T05:55:00.842Z,25.13
2022-08-19T05:57:29.902Z,23.85
2022-08-19T05:59:59.104Z,25.40
2022-08-19T06:02:27.999Z,24.63
2022-08-19T06:04:55.348Z,20.60
2022-08-19T06:07:23.327Z,22.25
2022-08-19T06:09:59.698Z,21.55
2022-08-19T06:12:32.633Z,21.77
2022-08-19T06:15:02.119Z,20.02
2022-08-19T06:17:31.434Z,21.95
2022-08-19T06:20:00.119Z,22.70
2022-08-19T06:22:29.018Z,22.25
2022-08-19T06:24:57.527Z,23.63
2022-08-19T06:27:24.805Z,20.95
2022-08-19T06:29:52.030Z,23.63
2022-08-19T06:32:20.060Z,22.90
2022-08-19T06:34:47.925Z,22.92
2022-08-19T06:37:15.931Z,25.00
2022-08-19T06:39:44.936Z,22.52
2022-08-19T06:42:14.207Z,20.23
2022-08-19T06:44:49.021Z,20.00
2022-08-19T06:47:23.385Z,22.95
2022-08-19T06:50:01.154Z,21.85
2022-08-19T06:52:34.043Z,21.75
2022-08-19T06:55:06.090Z,25.52
2022-08-19T06:57:34.953Z,22.33
2022-08-19T07:00:02.646Z,23.98
2022-08-19T07:02:30.458Z,18.83
2022-08-19T07:05:04.505Z,22.40
2022-08-19T07:07:35.568Z,21.77
2022-08-19T07:10:06.216Z,17.77
2022-08-19T07:12:35.891Z,19.60
2022-08-19T07:15:11.752Z,22.63
2022-08-19T07:17:40.105Z,21.83
2022-08-19T07:20:10.769Z,20.27
2022-08-19T07:22:39.354Z,18.33
2022-08-19T07:25:08.683Z,21.42
2022-08-19T07:27:35.964Z,18.48
2022-08-19T07:30:05.436Z,17.85
2022-08-19T07:32:32.865Z,19.73
2022-08-19T07:35:01.531Z,18.88
2022-08-19T07:37:33.115Z,18.17
2022-08-19T07:40:02.151Z,20.70
2022-08-19T07:42:30.701Z,19.30
2022-08-19T07:44:59.291Z,20.70
2022-08-19T07:47:49.996Z,20.88
2022-08-19T07:50:16.147Z,23.65
2022-08-19T07:52:45.217Z,22.40
2022-08-19T07:55:42.618Z,24.95
2022-08-19T07:58:12.834Z,20.65
2022-08-19T08:00:40.285Z,25.45
2022-08-19T08:03:07.598Z,25.67
2022-08-19T08:05:53.682Z,25.85
2022-08-19T08:08:44.439Z,24.30
2022-08-19T08:11:19.921Z,25.02
2022-08-19T08:14:00.962Z,28.52
2022-08-19T08:16:39.351Z,27.50
2022-08-19T08:19:14.815Z,28.52
2022-08-19T08:21:51.294Z,27.10
2022-08-19T08:24:19.245Z,25.45
2022-08-19T08:26:47.226Z,27.02
2022-08-19T08:29:20.543Z,26.40
2022-08-19T08:31:48.817Z,26.60
2022-08-19T08:34:25.702Z,29.00
2022-08-19T08:36:53.096Z,25.48
2022-08-19T08:39:22.230Z,21.90
2022-08-19T08:42:17.702Z,28.98
2022-08-19T08:45:07.896Z,26.42
2022-08-19T08:47:41.930Z,29.23
2022-08-19T08:50:16.634Z,27.10
2022-08-19T08:52:47.393Z,28.95
2022-08-19T08:55:20.455Z,30.58
2022-08-19T08:57:55.765Z,31.05
2022-08-19T09:00:27.657Z,28.75
2022-08-19T09:02:55.947Z,28.90
2022-08-19T09:05:37.659Z,28.85
2022-08-19T09:08:18.092Z,28.13
2022-08-19T09:10:57.215Z,28.00
2022-08-19T09:13:37.490Z,25.02
2022-08-19T09:16:15.520Z,22.00
2022-08-19T09:18:42.917Z,22.42
2022-08-19T09:21:11.178Z,22.23
2022-08-19T09:23:38.516Z,22.05
2022-08-19T09:26:17.275Z,27.67
2022-08-19T09:28:50.384Z,22.48
2022-08-19T09:31:21.204Z,22.05
2022-08-19T09:33:49.193Z,22.30
2022-08-19T09:36:33.695Z,22.58
2022-08-19T09:39:04.198Z,19.52
2022-08-19T09:41:47.612Z,20.45
2022-08-19T09:44:16.890Z,21.50
2022-08-19T09:46:47.928Z,18.95
2022-08-19T09:49:18.317Z,19.65
2022-08-19T09:51:51.266Z,18.83
2022-08-19T09:54:23.451Z,17.33
2022-08-19T09:56:53.411Z,15.75
2022-08-19T09:59:21.323Z,17.27
2022-08-19T10:01:48.749Z,14.23
2022-08-19T10:04:20.280Z,13.65
2022-08-19T10:06:53.767Z,13.23
2022-08-19T10:09:33.702Z,10.68
2022-08-19T10:12:03.614Z,10.55
2022-08-19T10:14:32.061Z,9.88
2022-08-19T10:17:01.233Z,10.82
2022-08-19T10:19:36.762Z,13.35
2022-08-19T10:22:06.267Z,11.70
2022-08-19T10:24:37.562Z,13.75
2022-08-19T10:27:06.522Z,11.00
2022-08-19T10:29:36.808Z,13.65
2022-08-19T10:32:14.347Z,13.48
2022-08-19T10:34:48.237Z,12.60
2022-08-19T10:37:23.884Z,12.40
2022-08-19T10:39:56.548Z,13.85
2022-08-19T10:42:23.812Z,11.45
2022-08-19T10:44:51.988Z,12.02
2022-08-19T10:47:25.691Z,12.95
2022-08-19T10:50:15.653Z,14.13
2022-08-19T10:52:49.031Z,16.10
2022-08-19T10:55:50.115Z,14.82
2022-08-19T10:58:27.047Z,15.52
2022-08-19T11:00:57.454Z,16.48
2022-08-19T11:03:27.441Z,15.68
2022-08-19T11:06:21.511Z,13.98
2022-08-19T11:08:48.747Z,15.23
2022-08-19T11:11:15.974Z,14.40
2022-08-19T11:13:44.280Z,12.35
2022-08-19T11:16:14.878Z,13.77
2022-08-19T11:18:44.993Z,12.32
2022-08-19T11:21:24.974Z,10.55
2022-08-19T11:23:55.533Z,9.52
2022-08-19T11:26:23.673Z,10.20
2022-08-19T11:28:56.104Z,9.57
2022-08-19T11:31:29.795Z,10.85
2022-08-19T11:34:00.490Z,11.05
2022-08-19T11:36:28.310Z,12.88
2022-08-19T11:38:56.095Z,11.05
2022-08-19T11:41:25.315Z,9.75
2022-08-19T11:43:56.059Z,10.35
2022-08-19T11:46:25.718Z,11.43
2022-08-19T11:48:53.099Z,9.70
2022-08-19T11:51:25.575Z,8.00
2022-08-19T11:53:54.856Z,9.52
2022-08-19T11:56:23.641Z,9.70
2022-08-19T11:58:51.776Z,8.65
2022-08-19T12:01:20.793Z,7.88
2022-08-19T12:03:50.152Z,9.60
2022-08-19T12:06:30.023Z,8.70
2022-08-19T12:08:58.957Z,9.43
2022-08-19T12:11:27.249Z,8.20
2022-08-19T12:13:55.187Z,8.07
2022-08-19T12:16:27.655Z,9.00
2022-08-19T12:18:56.635Z,10.35
2022-08-19T12:21:29.460Z,8.70
2022-08-19T12:23:58.738Z,9.23
2022-08-19T12:26:27.819Z,8.77
2022-08-19T12:28:55.582Z,6.57
2022-08-19T12:31:22.929Z,6.53
2022-08-19T12:33:50.172Z,8.07
2022-08-19T12:36:18.721Z,7.07
2022-08-19T12:38:47.656Z,6.20
2022-08-19T12:41:18.618Z,8.23
2022-08-19T12:43:46.461Z,7.15
2022-08-19T12:46:13.775Z,8.02
2022-08-19T12:48:45.570Z,7.18
2022-08-19T12:51:15.867Z,7.90
2022-08-19T12:53:43.380Z,7.57
2022-08-19T12:56:12.633Z,7.50
2022-08-19T12:58:42.544Z,7.28
2022-08-19T13:01:18.031Z,7.53
2022-08-19T13:03:51.090Z,7.88
2022-08-19T13:06:19.403Z,7.75
2022-08-19T13:08:47.858Z,6.55
2022-08-19T13:11:18.655Z,6.82
2022-08-19T13:13:48.831Z,6.65
2022-08-19T13:16:16.742Z,6.38
2022-08-19T13:18:48.235Z,6.85
2022-08-19T13:21:15.789Z,6.30
2022-08-19T13:23:43.249Z,6.75
2022-08-19T13:26:12.699Z,6.22
2022-08-19T13:28:59.815Z,5.50
2022-08-19T13:31:48.145Z,5.68
2022-08-19T13:34:16.368Z,5.60
2022-08-19T13:36:43.763Z,5.05
2022-08-19T13:39:11.576Z,3.80
2022-08-19T13:41:43.999Z,4.32
2022-08-19T13:44:11.280Z,4.50
2022-08-19T13:46:38.514Z,5.22
2022-08-19T13:49:05.763Z,4.60
2022-08-19T13:51:32.988Z,4.47
2022-08-19T13:54:00.227Z,4.35
2022-08-19T13:56:27.572Z,4.70
2022-08-19T13:58:54.861Z,5.80
2022-08-19T14:01:27.515Z,4.45
2022-08-19T14:03:54.829Z,5.63
2022-08-19T14:06:23.220Z,5.07
2022-08-19T14:08:50.932Z,4.78
2022-08-19T14:11:18.235Z,4.78
2022-08-19T14:13:45.490Z,4.32
2022-08-19T14:16:14.644Z,4.63
2022-08-19T14:18:43.102Z,4.43
2022-08-19T14:21:18.251Z,4.53
2022-08-19T14:23:45.995Z,4.45
2022-08-19T14:26:15.974Z,5.28
2022-08-19T14:28:43.945Z,5.10
2022-08-19T14:31:12.736Z,5.47
2022-08-19T14:33:41.408Z,4.20
2022-08-19T14:36:08.762Z,3.95
2022-08-19T14:38:36.739Z,4.75
2022-08-19T14:41:20.177Z,4.78
2022-08-19T14:43:50.830Z,4.45
2022-08-19T14:46:21.477Z,6.45
2022-08-19T14:48:51.712Z,3.97
2022-08-19T14:51:21.829Z,3.88
2022-08-19T14:53:52.182Z,3.55
2022-08-19T14:56:23.577Z,3.20
2022-08-19T14:58:54.448Z,3.63
2022-08-19T15:01:25.031Z,4.20
2022-08-19T15:03:55.686Z,3.63
2022-08-19T15:06:25.181Z,2.72
2022-08-19T15:08:54.256Z,2.70
2022-08-19T15:11:24.757Z,3.70
2022-08-19T15:13:52.048Z,3.17
2022-08-19T15:16:21.604Z,3.30
2022-08-19T15:18:51.956Z,3.47
2022-08-19T15:21:26.950Z,2.97
2022-08-19T15:23:56.969Z,2.88
2022-08-19T15:26:26.619Z,2.67
2022-08-19T15:28:54.121Z,3.33
2022-08-19T15:31:28.432Z,4.28
2022-08-19T15:33:58.437Z,2.80
2022-08-19T15:36:27.093Z,2.28
2022-08-19T15:38:58.280Z,2.40
2022-08-19T15:41:30.459Z,2.67
2022-08-19T15:44:04.599Z,2.35
2022-08-19T15:46:33.903Z,3.30
2022-08-19T15:49:01.978Z,2.35
2022-08-19T15:51:32.420Z,2.40
2022-08-19T15:54:00.237Z,2.17
2022-08-19T15:56:58.096Z,2.15
2022-08-19T15:59:47.484Z,2.50
2022-08-19T16:02:35.008Z,2.60
2022-08-19T16:05:27.729Z,2.90
2022-08-19T16:07:55.235Z,2.60
2022-08-19T16:10:27.011Z,2.60
2022-08-19T16:12:57.582Z,2.88
2022-08-19T16:15:27.878Z,2.92
2022-08-19T16:17:57.007Z,2.50
2022-08-19T16:20:26.224Z,2.85
2022-08-19T16:22:55.319Z,2.58
2022-08-19T16:25:27.462Z,2.42
2022-08-19T16:28:07.792Z,2.38
2022-08-19T16:30:38.776Z,2.42
2022-08-19T16:33:07.068Z,2.42
2022-08-19T16:35:34.624Z,2.47
2022-08-19T16:38:02.650Z,2.03
2022-08-19T16:40:29.973Z,2.97
2022-08-19T16:42:57.342Z,3.95
2022-08-19T16:45:25.009Z,4.57
2022-08-19T16:47:52.461Z,2.75
2022-08-19T16:50:29.322Z,2.08
2022-08-19T16:53:09.380Z,2.05
2022-08-19T16:55:37.606Z,1.63
2022-08-19T16:58:04.978Z,2.40
2022-08-19T17:00:32.277Z,1.92
2022-08-19T17:03:14.329Z,2.60
2022-08-19T17:05:47.504Z,1.80
2022-08-19T17:08:18.670Z,1.70
2022-08-19T17:11:17.053Z,2.33
2022-08-19T17:13:38.767Z,1.85
2022-08-19T17:16:07.003Z,1.83
2022-08-19T17:18:34.331Z,1.70
2022-08-19T17:21:02.070Z,1.75
2022-08-19T17:23:42.897Z,2.55
2022-08-19T17:26:17.008Z,2.42
2022-08-19T17:28:49.498Z,2.50
2022-08-19T17:31:19.276Z,2.20
2022-08-19T17:33:48.263Z,1.77
2022-08-19T17:36:23.273Z,2.38
2022-08-19T17:38:52.728Z,2.20
2022-08-19T17:41:20.031Z,2.60
2022-08-19T17:43:47.574Z,2.85
2022-08-19T17:46:17.715Z,3.33
2022-08-19T17:48:52.203Z,3.20
2022-08-19T17:51:22.692Z,2.83
2022-08-19T17:53:51.766Z,3.53
2022-08-19T17:56:19.540Z,2.80
2022-08-19T17:58:59.571Z,2.95
2022-08-19T18:01:36.956Z,2.63
2022-08-19T18:04:18.629Z,2.53
2022-08-19T18:06:53.202Z,2.50
2022-08-19T18:09:38.746Z,3.00
2022-08-19T18:12:15.566Z,2.83
2022-08-19T18:14:42.854Z,2.30
2022-08-19T18:17:17.207Z,3.20
2022-08-19T18:19:45.653Z,3.50
2022-08-19T18:22:33.537Z,2.90
2022-08-19T18:25:02.800Z,2.67
2022-08-19T18:27:30.131Z,2.83
2022-08-19T18:29:58.998Z,2.35
2022-08-19T18:32:38.264Z,2.47
2022-08-19T18:35:12.212Z,2.80
2022-08-19T18:37:40.858Z,2.60
2022-08-19T18:40:30.609Z,7.28
2022-08-19T18:43:16.515Z,3.17
2022-08-19T18:46:02.892Z,2.75
2022-08-19T18:48:48.933Z,3.25
2022-08-19T18:51:17.729Z,3.17
2022-08-19T18:53:47.209Z,7.13
2022-08-19T18:56:16.801Z,2.63
2022-08-19T18:58:44.573Z,2.47
2022-08-19T19:01:17.491Z,2.47
2022-08-19T19:03:49.459Z,2.25
2022-08-19T19:06:23.811Z,2.15
2022-08-19T19:08:52.122Z,2.30
2022-08-19T19:11:46.934Z,2.63
2022-08-19T19:14:32.811Z,2.25
2022-08-19T19:17:08.377Z,2.30
2022-08-19T19:19:35.664Z,2.47
2022-08-19T19:22:04.187Z,2.47
2022-08-19T19:24:32.998Z,2.80
2022-08-19T19:27:10.141Z,2.50
2022-08-19T19:29:37.934Z,1.83
2022-08-19T19:32:07.548Z,2.00
2022-08-19T19:34:36.927Z,1.80
2022-08-19T19:37:04.229Z,2.15
2022-08-19T19:39:45.763Z,2.20
2022-08-19T19:42:21.454Z,2.17
2022-08-19T19:44:51.098Z,2.28
2022-08-19T19:47:19.629Z,1.98
2022-08-19T19:52:39.691Z,2.63
2022-08-19T19:55:09.393Z,1.90
2022-08-19T19:57:39.603Z,1.90
2022-08-19T20:00:09.171Z,2.10
2022-08-19T20:02:36.482Z,1.90
2022-08-19T20:05:04.289Z,4.63
2022-08-19T20:07:49.999Z,3.70
2022-08-19T20:10:17.239Z,2.97
2022-08-19T20:12:44.505Z,2.35
2022-08-19T20:15:11.785Z,3.42
2022-08-19T20:17:42.155Z,3.70
2022-08-19T20:20:14.954Z,3.45
2022-08-19T20:22:43.798Z,1.88
2022-08-19T20:25:12.167Z,2.53
2022-08-19T20:27:40.365Z,2.47
2022-08-19T20:30:13.923Z,2.10
2022-08-19T20:32:47.830Z,2.47
2022-08-19T20:35:17.711Z,1.80
2022-08-19T20:37:45.013Z,1.95
2022-08-19T20:40:13.420Z,2.42
2022-08-19T20:42:42.170Z,2.97
2022-08-19T20:45:26.737Z,2.15
2022-08-19T20:47:59.234Z,2.38
2022-08-19T20:50:28.514Z,2.58
2022-08-19T20:52:58.271Z,2.00
2022-08-19T20:55:26.514Z,2.47
2022-08-19T20:57:53.990Z,2.45
2022-08-19T21:00:21.392Z,2.17
2022-08-19T21:02:48.665Z,2.53
2022-08-19T21:05:15.890Z,2.13
2022-08-19T21:07:43.115Z,1.60
2022-08-19T21:10:11.147Z,2.20
2022-08-19T21:12:39.005Z,2.38
2022-08-19T21:15:07.155Z,2.00
2022-08-19T21:17:35.530Z,2.08
2022-08-19T21:20:04.317Z,2.15
2022-08-19T21:22:31.619Z,2.20
2022-08-19T21:24:58.861Z,2.10
2022-08-19T21:27:26.087Z,1.95
2022-08-19T21:29:54.851Z,1.95
2022-08-19T21:32:23.599Z,1.73
2022-08-19T21:34:52.689Z,1.95
2022-08-19T21:37:25.634Z,1.60
2022-08-19T21:39:54.496Z,2.13
2022-08-19T21:42:23.343Z,2.15
2022-08-19T21:44:50.704Z,2.35
2022-08-19T21:47:18.079Z,2.45
2022-08-19T21:49:46.014Z,3.47
2022-08-19T21:52:13.488Z,3.08
2022-08-19T21:54:41.767Z,3.67
2022-08-19T21:57:10.463Z,3.70
2022-08-19T21:59:44.202Z,3.08
2022-08-19T22:02:20.500Z,3.13
2022-08-19T22:04:49.699Z,3.67
2022-08-19T22:07:18.035Z,2.35
2022-08-19T22:09:46.389Z,2.80
2022-08-19T22:12:45.996Z,2.88
2022-08-19T22:15:23.571Z,2.70
2022-08-19T22:17:50.949Z,2.70
2022-08-19T22:20:22.155Z,2.60
2022-08-19T22:22:57.973Z,3.13
2022-08-19T22:25:37.540Z,3.28
2022-08-19T22:28:10.848Z,2.80
2022-08-19T22:30:41.609Z,2.80
2022-08-19T22:33:12.361Z,2.55
2022-08-19T22:35:41.144Z,3.42
2022-08-19T22:38:10.186Z,2.92
2022-08-19T22:40:40.069Z,2.42
2022-08-19T22:43:15.078Z,2.60
2022-08-19T22:45:43.884Z,3.38
2022-08-19T22:48:13.232Z,2.50
2022-08-19T22:50:42.627Z,3.35
2022-08-19T22:53:12.259Z,2.75
2022-08-19T22:55:39.534Z,2.80
2022-08-19T22:58:06.776Z,2.85
2022-08-19T23:00:34.684Z,2.58
2022-08-19T23:03:02.197Z,3.13
2022-08-19T23:05:30.375Z,2.47
2022-08-19T23:07:59.052Z,2.47
2022-08-19T23:10:28.927Z,2.50
2022-08-19T23:12:59.097Z,2.50
2022-08-19T23:15:30.323Z,2.45
2022-08-19T23:18:00.274Z,2.63
2022-08-19T23:20:32.983Z,2.75
2022-08-19T23:23:03.665Z,2.75
2022-08-19T23:25:32.373Z,2.22
2022-08-19T23:28:18.392Z,3.40
2022-08-19T23:30:47.430Z,2.58
2022-08-19T23:33:50.856Z,2.83
2022-08-19T23:36:19.711Z,3.03
2022-08-19T23:38:48.852Z,4.03
2022-08-19T23:41:19.085Z,3.67
2022-08-19T23:43:46.403Z,4.18
2022-08-19T23:46:28.115Z,3.25
2022-08-19T23:48:56.916Z,3.42
2022-08-19T23:51:26.396Z,2.95
2022-08-19T23:53:53.839Z,2.88
2022-08-19T23:56:21.444Z,3.50
2022-08-19T23:58:49.145Z,3.92
